sensor_id;sensor_type;location;lat;lon;timestamp;P1;durP1;ratioP1;P2;durP2;ratioP2
9422;SDS011;65863;49.506;10.400;2023-06-14T00:02:21;4.63;;;3.63;;
9422;SDS011;65863;49.506;10.400;2023-06-14T00:05:05;5.20;;;3.93;;
9422;SDS011;65863;49.506;10.400;2023-06-14T00:07:50;6.87;;;4.23;;
9422;SDS011;65863;49.506;10.400;2023-06-14T00:10:37;4.50;;;4.10;;
9422;SDS011;65863;49.506;10.400;2023-06-14T00:13:22;4.37;;;3.97;;
9422;SDS011;65863;49.506;10.400;2023-06-14T00:16:07;5.63;;;3.93;;
9422;SDS011;65863;49.506;10.400;2023-06-14T00:18:51;7.13;;;4.40;;
9422;SDS011;65863;49.506;10.400;2023-06-14T00:21:36;5.47;;;3.67;;
9422;SDS011;65863;49.506;10.400;2023-06-14T00:24:20;5.43;;;4.20;;
9422;SDS011;65863;49.506;10.400;2023-06-14T00:27:04;8.03;;;4.00;;
9422;SDS011;65863;49.506;10.400;2023-06-14T00:29:49;6.77;;;4.03;;
9422;SDS011;65863;49.506;10.400;2023-06-14T00:32:33;6.50;;;4.13;;
9422;SDS011;65863;49.506;10.400;2023-06-14T00:35:17;4.20;;;3.80;;
9422;SDS011;65863;49.506;10.400;2023-06-14T00:38:01;6.10;;;4.30;;
9422;SDS011;65863;49.506;10.400;2023-06-14T00:40:46;5.70;;;4.40;;
9422;SDS011;65863;49.506;10.400;2023-06-14T00:43:30;4.77;;;3.63;;
9422;SDS011;65863;49.506;10.400;2023-06-14T00:46:14;4.63;;;4.07;;
9422;SDS011;65863;49.506;10.400;2023-06-14T00:48:58;6.00;;;4.33;;
9422;SDS011;65863;49.506;10.400;2023-06-14T00:51:45;4.53;;;4.03;;
9422;SDS011;65863;49.506;10.400;2023-06-14T00:54:29;5.77;;;4.40;;
9422;SDS011;65863;49.506;10.400;2023-06-14T00:57:13;6.50;;;4.30;;
9422;SDS011;65863;49.506;10.400;2023-06-14T00:59:58;6.87;;;4.47;;
9422;SDS011;65863;49.506;10.400;2023-06-14T01:02:42;5.20;;;4.70;;
9422;SDS011;65863;49.506;10.400;2023-06-14T01:05:27;7.23;;;4.70;;
9422;SDS011;65863;49.506;10.400;2023-06-14T01:11:38;6.80;;;4.57;;
9422;SDS011;65863;49.506;10.400;2023-06-14T01:14:38;6.57;;;5.00;;
9422;SDS011;65863;49.506;10.400;2023-06-14T01:17:22;5.27;;;4.77;;
9422;SDS011;65863;49.506;10.400;2023-06-14T01:20:07;6.17;;;5.17;;
9422;SDS011;65863;49.506;10.400;2023-06-14T01:22:56;5.50;;;5.00;;
9422;SDS011;65863;49.506;10.400;2023-06-14T01:25:40;9.63;;;5.47;;
9422;SDS011;65863;49.506;10.400;2023-06-14T01:28:29;7.73;;;5.20;;
9422;SDS011;65863;49.506;10.400;2023-06-14T01:31:17;5.93;;;5.37;;
9422;SDS011;65863;49.506;10.400;2023-06-14T01:34:03;6.20;;;5.60;;
9422;SDS011;65863;49.506;10.400;2023-06-14T01:36:47;6.90;;;5.20;;
9422;SDS011;65863;49.506;10.400;2023-06-14T01:39:33;6.93;;;5.27;;
9422;SDS011;65863;49.506;10.400;2023-06-14T01:42:17;6.67;;;5.00;;
9422;SDS011;65863;49.506;10.400;2023-06-14T01:45:03;6.03;;;5.43;;
9422;SDS011;65863;49.506;10.400;2023-06-14T01:47:49;6.17;;;4.90;;
9422;SDS011;65863;49.506;10.400;2023-06-14T01:50:33;5.97;;;5.13;;
9422;SDS011;65863;49.506;10.400;2023-06-14T01:53:17;6.80;;;4.93;;
9422;SDS011;65863;49.506;10.400;2023-06-14T01:56:01;6.33;;;5.30;;
9422;SDS011;65863;49.506;10.400;2023-06-14T01:58:48;5.43;;;4.93;;
9422;SDS011;65863;49.506;10.400;2023-06-14T02:01:32;6.63;;;5.17;;
9422;SDS011;65863;49.506;10.400;2023-06-14T02:04:19;6.67;;;5.13;;
9422;SDS011;65863;49.506;10.400;2023-06-14T02:07:04;5.67;;;5.07;;
9422;SDS011;65863;49.506;10.400;2023-06-14T02:09:48;5.13;;;4.73;;
9422;SDS011;65863;49.506;10.400;2023-06-14T02:12:33;6.60;;;5.97;;
9422;SDS011;65863;49.506;10.400;2023-06-14T02:15:17;6.40;;;5.80;;
9422;SDS011;65863;49.506;10.400;2023-06-14T02:18:02;8.63;;;5.57;;
9422;SDS011;65863;49.506;10.400;2023-06-14T02:20:47;8.43;;;5.67;;
9422;SDS011;65863;49.506;10.400;2023-06-14T02:23:31;6.37;;;5.43;;
9422;SDS011;65863;49.506;10.400;2023-06-14T02:26:16;6.10;;;5.50;;
9422;SDS011;65863;49.506;10.400;2023-06-14T02:29:00;9.33;;;5.50;;
9422;SDS011;65863;49.506;10.400;2023-06-14T02:31:44;10.73;;;5.00;;
9422;SDS011;65863;49.506;10.400;2023-06-14T02:34:30;6.47;;;5.50;;
9422;SDS011;65863;49.506;10.400;2023-06-14T02:37:15;5.63;;;4.97;;
9422;SDS011;65863;49.506;10.400;2023-06-14T02:40:00;5.80;;;5.10;;
9422;SDS011;65863;49.506;10.400;2023-06-14T02:42:44;10.50;;;5.20;;
9422;SDS011;65863;49.506;10.400;2023-06-14T02:45:28;7.47;;;4.93;;
9422;SDS011;65863;49.506;10.400;2023-06-14T02:48:12;7.83;;;4.87;;
9422;SDS011;65863;49.506;10.400;2023-06-14T02:50:58;5.87;;;5.27;;
9422;SDS011;65863;49.506;10.400;2023-06-14T02:53:42;10.80;;;6.00;;
9422;SDS011;65863;49.506;10.400;2023-06-14T02:56:28;7.43;;;5.73;;
9422;SDS011;65863;49.506;10.400;2023-06-14T02:59:14;8.63;;;5.30;;
9422;SDS011;65863;49.506;10.400;2023-06-14T03:01:59;6.50;;;5.80;;
9422;SDS011;65863;49.506;10.400;2023-06-14T03:04:43;6.03;;;5.37;;
9422;SDS011;65863;49.506;10.400;2023-06-14T03:07:31;5.80;;;5.30;;
9422;SDS011;65863;49.506;10.400;2023-06-14T03:10:17;6.00;;;5.50;;
9422;SDS011;65863;49.506;10.400;2023-06-14T03:13:02;7.20;;;5.70;;
9422;SDS011;65863;49.506;10.400;2023-06-14T03:15:47;6.10;;;5.50;;
9422;SDS011;65863;49.506;10.400;2023-06-14T03:18:33;8.73;;;5.57;;
9422;SDS011;65863;49.506;10.400;2023-06-14T03:21:19;5.67;;;5.10;;
9422;SDS011;65863;49.506;10.400;2023-06-14T03:24:04;5.43;;;4.90;;
9422;SDS011;65863;49.506;10.400;2023-06-14T03:26:50;10.53;;;5.80;;
9422;SDS011;65863;49.506;10.400;2023-06-14T03:29:34;6.17;;;5.53;;
9422;SDS011;65863;49.506;10.400;2023-06-14T03:32:18;10.53;;;5.37;;
9422;SDS011;65863;49.506;10.400;2023-06-14T03:35:02;6.80;;;6.03;;
9422;SDS011;65863;49.506;10.400;2023-06-14T03:37:47;6.40;;;5.20;;
9422;SDS011;65863;49.506;10.400;2023-06-14T03:40:32;7.47;;;5.80;;
9422;SDS011;65863;49.506;10.400;2023-06-14T03:43:20;6.43;;;5.50;;
9422;SDS011;65863;49.506;10.400;2023-06-14T03:46:04;11.50;;;5.90;;
9422;SDS011;65863;49.506;10.400;2023-06-14T03:48:51;5.60;;;5.10;;
9422;SDS011;65863;49.506;10.400;2023-06-14T03:51:36;6.93;;;5.10;;
9422;SDS011;65863;49.506;10.400;2023-06-14T03:54:19;7.53;;;5.43;;
9422;SDS011;65863;49.506;10.400;2023-06-14T03:57:07;8.33;;;5.70;;
9422;SDS011;65863;49.506;10.400;2023-06-14T03:59:51;6.13;;;5.27;;
9422;SDS011;65863;49.506;10.400;2023-06-14T04:02:37;8.70;;;5.57;;
9422;SDS011;65863;49.506;10.400;2023-06-14T04:05:22;6.37;;;5.77;;
9422;SDS011;65863;49.506;10.400;2023-06-14T04:08:10;6.13;;;5.53;;
9422;SDS011;65863;49.506;10.400;2023-06-14T04:10:58;6.33;;;5.37;;
9422;SDS011;65863;49.506;10.400;2023-06-14T04:13:42;9.10;;;5.30;;
9422;SDS011;65863;49.506;10.400;2023-06-14T04:16:26;6.03;;;5.43;;
9422;SDS011;65863;49.506;10.400;2023-06-14T04:19:10;6.13;;;5.47;;
9422;SDS011;65863;49.506;10.400;2023-06-14T04:21:54;8.23;;;5.90;;
9422;SDS011;65863;49.506;10.400;2023-06-14T04:24:39;7.10;;;5.80;;
9422;SDS011;65863;49.506;10.400;2023-06-14T04:27:27;6.27;;;5.60;;
9422;SDS011;65863;49.506;10.400;2023-06-14T04:30:12;5.90;;;5.03;;
9422;SDS011;65863;49.506;10.400;2023-06-14T04:33:05;7.50;;;5.17;;
9422;SDS011;65863;49.506;10.400;2023-06-14T04:35:50;9.40;;;5.43;;
9422;SDS011;65863;49.506;10.400;2023-06-14T04:38:37;12.70;;;5.70;;
9422;SDS011;65863;49.506;10.400;2023-06-14T04:41:22;8.07;;;5.90;;
9422;SDS011;65863;49.506;10.400;2023-06-14T04:44:06;12.87;;;6.83;;
9422;SDS011;65863;49.506;10.400;2023-06-14T04:46:59;7.40;;;5.90;;
9422;SDS011;65863;49.506;10.400;2023-06-14T04:49:43;5.93;;;4.60;;
9422;SDS011;65863;49.506;10.400;2023-06-14T04:52:28;8.40;;;4.97;;
9422;SDS011;65863;49.506;10.400;2023-06-14T04:55:13;5.97;;;5.10;;
9422;SDS011;65863;49.506;10.400;2023-06-14T04:57:58;7.93;;;5.10;;
9422;SDS011;65863;49.506;10.400;2023-06-14T05:00:43;7.63;;;4.80;;
9422;SDS011;65863;49.506;10.400;2023-06-14T05:03:27;8.30;;;4.63;;
9422;SDS011;65863;49.506;10.400;2023-06-14T05:06:12;7.50;;;4.97;;
9422;SDS011;65863;49.506;10.400;2023-06-14T05:08:58;9.00;;;5.13;;
9422;SDS011;65863;49.506;10.400;2023-06-14T05:11:42;6.03;;;4.90;;
9422;SDS011;65863;49.506;10.400;2023-06-14T05:14:28;11.87;;;4.83;;
9422;SDS011;65863;49.506;10.400;2023-06-14T05:17:13;6.20;;;5.00;;
9422;SDS011;65863;49.506;10.400;2023-06-14T05:19:57;5.03;;;3.93;;
9422;SDS011;65863;49.506;10.400;2023-06-14T05:22:42;4.80;;;4.30;;
9422;SDS011;65863;49.506;10.400;2023-06-14T05:25:26;5.57;;;4.20;;
9422;SDS011;65863;49.506;10.400;2023-06-14T05:28:11;5.10;;;3.67;;
9422;SDS011;65863;49.506;10.400;2023-06-14T05:30:55;6.07;;;4.13;;
9422;SDS011;65863;49.506;10.400;2023-06-14T05:33:40;6.17;;;4.20;;
9422;SDS011;65863;49.506;10.400;2023-06-14T05:36:24;6.90;;;4.10;;
9422;SDS011;65863;49.506;10.400;2023-06-14T05:39:08;6.07;;;4.07;;
9422;SDS011;65863;49.506;10.400;2023-06-14T05:41:53;8.60;;;4.53;;
9422;SDS011;65863;49.506;10.400;2023-06-14T05:44:37;8.90;;;3.97;;
9422;SDS011;65863;49.506;10.400;2023-06-14T05:47:21;5.87;;;3.80;;
9422;SDS011;65863;49.506;10.400;2023-06-14T05:50:05;4.00;;;3.67;;
9422;SDS011;65863;49.506;10.400;2023-06-14T05:52:50;6.13;;;3.87;;
9422;SDS011;65863;49.506;10.400;2023-06-14T05:55:33;4.83;;;3.33;;
9422;SDS011;65863;49.506;10.400;2023-06-14T05:58:17;4.20;;;3.80;;
9422;SDS011;65863;49.506;10.400;2023-06-14T06:01:01;5.57;;;3.80;;
9422;SDS011;65863;49.506;10.400;2023-06-14T06:03:46;4.07;;;3.67;;
9422;SDS011;65863;49.506;10.400;2023-06-14T06:06:30;4.30;;;3.70;;
9422;SDS011;65863;49.506;10.400;2023-06-14T06:09:16;6.10;;;3.53;;
9422;SDS011;65863;49.506;10.400;2023-06-14T06:12:00;8.60;;;4.90;;
9422;SDS011;65863;49.506;10.400;2023-06-14T06:14:44;10.63;;;4.00;;
9422;SDS011;65863;49.506;10.400;2023-06-14T06:17:28;5.63;;;3.53;;
9422;SDS011;65863;49.506;10.400;2023-06-14T06:20:12;4.57;;;3.53;;
9422;SDS011;65863;49.506;10.400;2023-06-14T06:22:57;5.53;;;3.50;;
9422;SDS011;65863;49.506;10.400;2023-06-14T06:25:42;10.37;;;3.60;;
9422;SDS011;65863;49.506;10.400;2023-06-14T06:28:26;4.77;;;3.60;;
9422;SDS011;65863;49.506;10.400;2023-06-14T06:31:10;5.87;;;3.20;;
9422;SDS011;65863;49.506;10.400;2023-06-14T06:33:55;4.57;;;3.43;;
9422;SDS011;65863;49.506;10.400;2023-06-14T06:36:39;6.80;;;3.73;;
9422;SDS011;65863;49.506;10.400;2023-06-14T06:39:22;4.70;;;3.60;;
9422;SDS011;65863;49.506;10.400;2023-06-14T06:42:06;4.87;;;3.17;;
9422;SDS011;65863;49.506;10.400;2023-06-14T06:44:54;5.70;;;3.50;;
9422;SDS011;65863;49.506;10.400;2023-06-14T06:47:38;6.80;;;4.20;;
9422;SDS011;65863;49.506;10.400;2023-06-14T06:50:22;5.77;;;4.03;;
9422;SDS011;65863;49.506;10.400;2023-06-14T06:53:06;8.77;;;3.60;;
9422;SDS011;65863;49.506;10.400;2023-06-14T06:55:50;4.73;;;3.20;;
9422;SDS011;65863;49.506;10.400;2023-06-14T06:58:34;3.53;;;3.23;;
9422;SDS011;65863;49.506;10.400;2023-06-14T07:01:18;4.23;;;3.80;;
9422;SDS011;65863;49.506;10.400;2023-06-14T07:04:03;3.50;;;3.07;;
9422;SDS011;65863;49.506;10.400;2023-06-14T07:06:47;5.57;;;3.70;;
9422;SDS011;65863;49.506;10.400;2023-06-14T07:09:31;7.80;;;3.50;;
9422;SDS011;65863;49.506;10.400;2023-06-14T07:12:15;5.40;;;3.50;;
9422;SDS011;65863;49.506;10.400;2023-06-14T07:14:59;5.23;;;3.43;;
9422;SDS011;65863;49.506;10.400;2023-06-14T07:17:45;5.10;;;3.77;;
9422;SDS011;65863;49.506;10.400;2023-06-14T07:20:29;4.77;;;3.50;;
9422;SDS011;65863;49.506;10.400;2023-06-14T07:23:14;9.73;;;4.03;;
9422;SDS011;65863;49.506;10.400;2023-06-14T07:25:58;4.23;;;3.43;;
9422;SDS011;65863;49.506;10.400;2023-06-14T07:28:43;5.93;;;3.50;;
9422;SDS011;65863;49.506;10.400;2023-06-14T07:31:28;5.47;;;3.37;;
9422;SDS011;65863;49.506;10.400;2023-06-14T07:34:13;7.03;;;3.97;;
9422;SDS011;65863;49.506;10.400;2023-06-14T07:36:57;8.17;;;3.50;;
9422;SDS011;65863;49.506;10.400;2023-06-14T07:39:41;6.23;;;3.63;;
9422;SDS011;65863;49.506;10.400;2023-06-14T07:42:25;7.07;;;3.83;;
9422;SDS011;65863;49.506;10.400;2023-06-14T07:45:10;4.73;;;3.30;;
9422;SDS011;65863;49.506;10.400;2023-06-14T07:47:55;5.23;;;3.60;;
9422;SDS011;65863;49.506;10.400;2023-06-14T07:50:40;4.13;;;3.30;;
9422;SDS011;65863;49.506;10.400;2023-06-14T07:53:24;3.07;;;2.77;;
9422;SDS011;65863;49.506;10.400;2023-06-14T07:56:09;6.10;;;3.40;;
9422;SDS011;65863;49.506;10.400;2023-06-14T07:58:53;4.30;;;3.20;;
9422;SDS011;65863;49.506;10.400;2023-06-14T08:01:38;3.97;;;3.40;;
9422;SDS011;65863;49.506;10.400;2023-06-14T08:04:23;4.67;;;3.30;;
9422;SDS011;65863;49.506;10.400;2023-06-14T08:07:08;3.27;;;2.97;;
9422;SDS011;65863;49.506;10.400;2023-06-14T08:09:52;3.53;;;3.07;;
9422;SDS011;65863;49.506;10.400;2023-06-14T08:12:37;5.27;;;3.30;;
9422;SDS011;65863;49.506;10.400;2023-06-14T08:15:21;8.70;;;3.10;;
9422;SDS011;65863;49.506;10.400;2023-06-14T08:18:05;3.40;;;3.10;;
9422;SDS011;65863;49.506;10.400;2023-06-14T08:20:49;3.47;;;2.70;;
9422;SDS011;65863;49.506;10.400;2023-06-14T08:23:34;4.50;;;3.10;;
9422;SDS011;65863;49.506;10.400;2023-06-14T08:26:17;3.00;;;2.80;;
9422;SDS011;65863;49.506;10.400;2023-06-14T08:29:02;5.10;;;3.20;;
9422;SDS011;65863;49.506;10.400;2023-06-14T08:31:46;3.40;;;3.10;;
9422;SDS011;65863;49.506;10.400;2023-06-14T08:34:30;4.13;;;3.00;;
9422;SDS011;65863;49.506;10.400;2023-06-14T08:37:15;4.80;;;3.03;;
9422;SDS011;65863;49.506;10.400;2023-06-14T08:39:58;7.43;;;2.73;;
9422;SDS011;65863;49.506;10.400;2023-06-14T08:42:43;4.23;;;2.93;;
9422;SDS011;65863;49.506;10.400;2023-06-14T08:45:29;3.33;;;2.80;;
9422;SDS011;65863;49.506;10.400;2023-06-14T08:48:13;4.63;;;3.00;;
9422;SDS011;65863;49.506;10.400;2023-06-14T08:51:00;3.10;;;2.80;;
9422;SDS011;65863;49.506;10.400;2023-06-14T08:53:49;5.97;;;3.00;;
9422;SDS011;65863;49.506;10.400;2023-06-14T08:56:36;3.57;;;2.97;;
9422;SDS011;65863;49.506;10.400;2023-06-14T08:59:21;3.37;;;2.90;;
9422;SDS011;65863;49.506;10.400;2023-06-14T09:02:06;4.97;;;2.90;;
9422;SDS011;65863;49.506;10.400;2023-06-14T09:04:50;3.50;;;2.80;;
9422;SDS011;65863;49.506;10.400;2023-06-14T09:07:34;4.07;;;2.67;;
9422;SDS011;65863;49.506;10.400;2023-06-14T09:10:18;2.97;;;2.50;;
9422;SDS011;65863;49.506;10.400;2023-06-14T09:13:05;2.87;;;2.50;;
9422;SDS011;65863;49.506;10.400;2023-06-14T09:15:50;3.07;;;2.77;;
9422;SDS011;65863;49.506;10.400;2023-06-14T09:18:38;3.20;;;2.50;;
9422;SDS011;65863;49.506;10.400;2023-06-14T09:21:24;3.27;;;2.13;;
9422;SDS011;65863;49.506;10.400;2023-06-14T09:24:13;3.50;;;2.43;;
9422;SDS011;65863;49.506;10.400;2023-06-14T09:26:57;5.33;;;2.63;;
9422;SDS011;65863;49.506;10.400;2023-06-14T09:29:41;5.40;;;2.40;;
9422;SDS011;65863;49.506;10.400;2023-06-14T09:32:25;6.07;;;2.83;;
9422;SDS011;65863;49.506;10.400;2023-06-14T09:35:09;3.77;;;2.70;;
9422;SDS011;65863;49.506;10.400;2023-06-14T09:37:53;2.73;;;2.30;;
9422;SDS011;65863;49.506;10.400;2023-06-14T09:40:39;2.70;;;2.50;;
9422;SDS011;65863;49.506;10.400;2023-06-14T09:43:23;5.83;;;2.73;;
9422;SDS011;65863;49.506;10.400;2023-06-14T09:46:10;6.77;;;2.97;;
9422;SDS011;65863;49.506;10.400;2023-06-14T09:48:53;4.87;;;2.60;;
9422;SDS011;65863;49.506;10.400;2023-06-14T09:51:45;3.00;;;2.80;;
9422;SDS011;65863;49.506;10.400;2023-06-14T09:54:30;2.83;;;2.43;;
9422;SDS011;65863;49.506;10.400;2023-06-14T09:57:16;3.90;;;2.60;;
9422;SDS011;65863;49.506;10.400;2023-06-14T10:00:04;3.17;;;2.83;;
9422;SDS011;65863;49.506;10.400;2023-06-14T10:02:57;4.30;;;2.83;;
9422;SDS011;65863;49.506;10.400;2023-06-14T10:05:49;2.93;;;2.67;;
9422;SDS011;65863;49.506;10.400;2023-06-14T10:08:34;5.30;;;3.07;;
9422;SDS011;65863;49.506;10.400;2023-06-14T10:11:20;4.37;;;3.00;;
9422;SDS011;65863;49.506;10.400;2023-06-14T10:14:05;2.97;;;2.70;;
9422;SDS011;65863;49.506;10.400;2023-06-14T10:17:06;6.50;;;2.87;;
9422;SDS011;65863;49.506;10.400;2023-06-14T10:19:55;8.03;;;2.93;;
9422;SDS011;65863;49.506;10.400;2023-06-14T10:22:49;9.47;;;3.20;;
9422;SDS011;65863;49.506;10.400;2023-06-14T10:25:34;6.47;;;2.83;;
9422;SDS011;65863;49.506;10.400;2023-06-14T10:28:19;2.67;;;2.40;;
9422;SDS011;65863;49.506;10.400;2023-06-14T10:31:11;7.07;;;2.77;;
9422;SDS011;65863;49.506;10.400;2023-06-14T10:33:57;8.03;;;2.80;;
9422;SDS011;65863;49.506;10.400;2023-06-14T10:36:42;4.27;;;3.00;;
9422;SDS011;65863;49.506;10.400;2023-06-14T10:39:27;5.20;;;2.80;;
9422;SDS011;65863;49.506;10.400;2023-06-14T10:42:12;3.97;;;2.60;;
9422;SDS011;65863;49.506;10.400;2023-06-14T10:44:57;3.13;;;2.80;;
9422;SDS011;65863;49.506;10.400;2023-06-14T10:47:45;4.13;;;2.80;;
9422;SDS011;65863;49.506;10.400;2023-06-14T10:50:32;2.70;;;2.50;;
9422;SDS011;65863;49.506;10.400;2023-06-14T10:53:24;6.03;;;2.90;;
9422;SDS011;65863;49.506;10.400;2023-06-14T10:56:08;8.23;;;3.03;;
9422;SDS011;65863;49.506;10.400;2023-06-14T10:58:52;5.13;;;2.80;;
9422;SDS011;65863;49.506;10.400;2023-06-14T11:01:36;3.43;;;2.70;;
9422;SDS011;65863;49.506;10.400;2023-06-14T11:04:46;4.77;;;3.03;;
9422;SDS011;65863;49.506;10.400;2023-06-14T11:07:39;5.50;;;2.53;;
9422;SDS011;65863;49.506;10.400;2023-06-14T11:10:39;6.17;;;2.53;;
9422;SDS011;65863;49.506;10.400;2023-06-14T11:13:26;4.87;;;2.73;;
9422;SDS011;65863;49.506;10.400;2023-06-14T11:16:12;6.13;;;2.80;;
9422;SDS011;65863;49.506;10.400;2023-06-14T11:19:02;2.60;;;2.40;;
9422;SDS011;65863;49.506;10.400;2023-06-14T11:21:47;3.73;;;2.40;;
9422;SDS011;65863;49.506;10.400;2023-06-14T11:24:32;3.40;;;2.70;;
9422;SDS011;65863;49.506;10.400;2023-06-14T11:27:16;3.07;;;2.60;;
9422;SDS011;65863;49.506;10.400;2023-06-14T11:30:00;3.60;;;2.90;;
9422;SDS011;65863;49.506;10.400;2023-06-14T11:32:48;2.83;;;2.63;;
9422;SDS011;65863;49.506;10.400;2023-06-14T11:35:33;6.13;;;3.00;;
9422;SDS011;65863;49.506;10.400;2023-06-14T11:38:18;4.20;;;2.60;;
9422;SDS011;65863;49.506;10.400;2023-06-14T11:41:02;4.87;;;3.00;;
9422;SDS011;65863;49.506;10.400;2023-06-14T11:43:46;3.40;;;2.30;;
9422;SDS011;65863;49.506;10.400;2023-06-14T11:46:30;5.33;;;2.70;;
9422;SDS011;65863;49.506;10.400;2023-06-14T11:49:14;4.47;;;2.57;;
9422;SDS011;65863;49.506;10.400;2023-06-14T11:51:58;6.00;;;2.77;;
9422;SDS011;65863;49.506;10.400;2023-06-14T11:54:42;4.67;;;2.33;;
9422;SDS011;65863;49.506;10.400;2023-06-14T11:57:26;3.77;;;2.60;;
9422;SDS011;65863;49.506;10.400;2023-06-14T12:00:10;4.07;;;2.50;;
9422;SDS011;65863;49.506;10.400;2023-06-14T12:02:59;2.83;;;2.63;;
9422;SDS011;65863;49.506;10.400;2023-06-14T12:05:43;3.30;;;2.60;;
9422;SDS011;65863;49.506;10.400;2023-06-14T12:08:37;11.80;;;3.30;;
9422;SDS011;65863;49.506;10.400;2023-06-14T12:11:28;6.43;;;2.73;;
9422;SDS011;65863;49.506;10.400;2023-06-14T12:14:15;4.07;;;2.83;;
9422;SDS011;65863;49.506;10.400;2023-06-14T12:17:04;3.87;;;3.03;;
9422;SDS011;65863;49.506;10.400;2023-06-14T12:19:50;3.10;;;2.63;;
9422;SDS011;65863;49.506;10.400;2023-06-14T12:22:35;4.27;;;2.87;;
9422;SDS011;65863;49.506;10.400;2023-06-14T12:28:16;6.07;;;2.37;;
9422;SDS011;65863;49.506;10.400;2023-06-14T12:31:00;2.73;;;2.53;;
9422;SDS011;65863;49.506;10.400;2023-06-14T12:33:44;5.87;;;2.30;;
9422;SDS011;65863;49.506;10.400;2023-06-14T12:36:32;4.73;;;2.60;;
9422;SDS011;65863;49.506;10.400;2023-06-14T12:39:17;4.90;;;2.80;;
9422;SDS011;65863;49.506;10.400;2023-06-14T12:42:01;4.33;;;2.50;;
9422;SDS011;65863;49.506;10.400;2023-06-14T12:44:47;5.37;;;2.67;;
9422;SDS011;65863;49.506;10.400;2023-06-14T12:47:31;6.03;;;2.80;;
9422;SDS011;65863;49.506;10.400;2023-06-14T12:50:15;8.13;;;3.00;;
9422;SDS011;65863;49.506;10.400;2023-06-14T12:52:59;5.90;;;2.83;;
9422;SDS011;65863;49.506;10.400;2023-06-14T12:55:43;4.70;;;2.53;;
9422;SDS011;65863;49.506;10.400;2023-06-14T12:58:28;4.07;;;2.90;;
9422;SDS011;65863;49.506;10.400;2023-06-14T13:01:12;4.43;;;2.57;;
9422;SDS011;65863;49.506;10.400;2023-06-14T13:03:56;6.73;;;2.87;;
9422;SDS011;65863;49.506;10.400;2023-06-14T13:06:40;5.23;;;2.30;;
9422;SDS011;65863;49.506;10.400;2023-06-14T13:09:24;4.70;;;2.50;;
9422;SDS011;65863;49.506;10.400;2023-06-14T13:12:09;2.80;;;2.53;;
9422;SDS011;65863;49.506;10.400;2023-06-14T13:14:55;4.23;;;2.47;;
9422;SDS011;65863;49.506;10.400;2023-06-14T13:17:39;6.07;;;2.43;;
9422;SDS011;65863;49.506;10.400;2023-06-14T13:20:23;3.30;;;2.40;;
9422;SDS011;65863;49.506;10.400;2023-06-14T13:23:07;4.60;;;2.40;;
9422;SDS011;65863;49.506;10.400;2023-06-14T13:25:52;2.70;;;2.40;;
9422;SDS011;65863;49.506;10.400;2023-06-14T13:28:37;3.43;;;2.80;;
9422;SDS011;65863;49.506;10.400;2023-06-14T13:31:21;3.17;;;2.60;;
9422;SDS011;65863;49.506;10.400;2023-06-14T13:34:05;2.83;;;2.30;;
9422;SDS011;65863;49.506;10.400;2023-06-14T13:36:49;4.30;;;2.37;;
9422;SDS011;65863;49.506;10.400;2023-06-14T13:39:33;2.93;;;2.20;;
9422;SDS011;65863;49.506;10.400;2023-06-14T13:42:20;3.47;;;2.33;;
9422;SDS011;65863;49.506;10.400;2023-06-14T13:45:04;3.40;;;2.40;;
9422;SDS011;65863;49.506;10.400;2023-06-14T13:47:49;3.07;;;2.17;;
9422;SDS011;65863;49.506;10.400;2023-06-14T13:50:33;4.40;;;2.40;;
9422;SDS011;65863;49.506;10.400;2023-06-14T13:53:17;3.33;;;2.23;;
9422;SDS011;65863;49.506;10.400;2023-06-14T13:56:01;4.47;;;2.60;;
9422;SDS011;65863;49.506;10.400;2023-06-14T13:58:45;2.50;;;2.23;;
9422;SDS011;65863;49.506;10.400;2023-06-14T14:01:29;3.80;;;2.10;;
9422;SDS011;65863;49.506;10.400;2023-06-14T14:04:13;3.20;;;2.30;;
9422;SDS011;65863;49.506;10.400;2023-06-14T14:06:57;3.63;;;2.57;;
9422;SDS011;65863;49.506;10.400;2023-06-14T14:09:41;4.90;;;2.30;;
9422;SDS011;65863;49.506;10.400;2023-06-14T14:12:26;3.50;;;2.50;;
9422;SDS011;65863;49.506;10.400;2023-06-14T14:15:12;2.80;;;2.40;;
9422;SDS011;65863;49.506;10.400;2023-06-14T14:17:58;3.07;;;2.50;;
9422;SDS011;65863;49.506;10.400;2023-06-14T14:20:42;2.60;;;2.40;;
9422;SDS011;65863;49.506;10.400;2023-06-14T14:23:26;4.63;;;2.33;;
9422;SDS011;65863;49.506;10.400;2023-06-14T14:26:09;5.67;;;2.50;;
9422;SDS011;65863;49.506;10.400;2023-06-14T14:28:53;2.50;;;2.30;;
9422;SDS011;65863;49.506;10.400;2023-06-14T14:31:38;2.67;;;2.17;;
9422;SDS011;65863;49.506;10.400;2023-06-14T14:34:23;4.30;;;2.27;;
9422;SDS011;65863;49.506;10.400;2023-06-14T14:37:08;2.37;;;2.07;;
9422;SDS011;65863;49.506;10.400;2023-06-14T14:39:52;3.67;;;2.20;;
9422;SDS011;65863;49.506;10.400;2023-06-14T14:42:36;3.50;;;2.10;;
9422;SDS011;65863;49.506;10.400;2023-06-14T14:45:20;4.33;;;2.53;;
9422;SDS011;65863;49.506;10.400;2023-06-14T14:48:05;3.27;;;2.13;;
9422;SDS011;65863;49.506;10.400;2023-06-14T14:50:49;4.03;;;2.70;;
9422;SDS011;65863;49.506;10.400;2023-06-14T14:53:33;3.00;;;2.37;;
9422;SDS011;65863;49.506;10.400;2023-06-14T14:56:17;3.73;;;2.10;;
9422;SDS011;65863;49.506;10.400;2023-06-14T14:59:01;2.73;;;2.10;;
9422;SDS011;65863;49.506;10.400;2023-06-14T15:01:45;3.97;;;2.00;;
9422;SDS011;65863;49.506;10.400;2023-06-14T15:04:29;3.27;;;2.17;;
9422;SDS011;65863;49.506;10.400;2023-06-14T15:07:14;2.23;;;1.90;;
9422;SDS011;65863;49.506;10.400;2023-06-14T15:09:58;3.37;;;2.57;;
9422;SDS011;65863;49.506;10.400;2023-06-14T15:12:42;3.50;;;2.37;;
9422;SDS011;65863;49.506;10.400;2023-06-14T15:15:26;3.73;;;2.00;;
9422;SDS011;65863;49.506;10.400;2023-06-14T15:18:10;2.50;;;2.30;;
9422;SDS011;65863;49.506;10.400;2023-06-14T15:20:54;2.20;;;2.00;;
9422;SDS011;65863;49.506;10.400;2023-06-14T15:23:39;7.00;;;2.43;;
9422;SDS011;65863;49.506;10.400;2023-06-14T15:26:23;3.23;;;2.13;;
9422;SDS011;65863;49.506;10.400;2023-06-14T15:29:08;2.20;;;1.93;;
9422;SDS011;65863;49.506;10.400;2023-06-14T15:31:52;2.20;;;2.00;;
9422;SDS011;65863;49.506;10.400;2023-06-14T15:34:38;3.97;;;1.97;;
9422;SDS011;65863;49.506;10.400;2023-06-14T15:37:23;2.93;;;2.30;;
9422;SDS011;65863;49.506;10.400;2023-06-14T15:40:07;2.80;;;2.40;;
9422;SDS011;65863;49.506;10.400;2023-06-14T15:42:51;7.00;;;2.27;;
9422;SDS011;65863;49.506;10.400;2023-06-14T15:45:38;13.03;;;2.50;;
9422;SDS011;65863;49.506;10.400;2023-06-14T15:48:23;3.47;;;2.10;;
9422;SDS011;65863;49.506;10.400;2023-06-14T15:51:07;3.23;;;2.10;;
9422;SDS011;65863;49.506;10.400;2023-06-14T15:53:51;3.73;;;2.10;;
9422;SDS011;65863;49.506;10.400;2023-06-14T15:56:36;1.90;;;1.80;;
9422;SDS011;65863;49.506;10.400;2023-06-14T15:59:20;3.53;;;1.97;;
9422;SDS011;65863;49.506;10.400;2023-06-14T16:02:04;4.50;;;2.07;;
9422;SDS011;65863;49.506;10.400;2023-06-14T16:04:48;2.80;;;2.23;;
9422;SDS011;65863;49.506;10.400;2023-06-14T16:07:32;4.17;;;2.30;;
9422;SDS011;65863;49.506;10.400;2023-06-14T16:10:16;4.90;;;2.20;;
9422;SDS011;65863;49.506;10.400;2023-06-14T16:13:00;2.70;;;2.00;;
9422;SDS011;65863;49.506;10.400;2023-06-14T16:15:44;3.47;;;1.80;;
9422;SDS011;65863;49.506;10.400;2023-06-14T16:18:28;5.30;;;2.27;;
9422;SDS011;65863;49.506;10.400;2023-06-14T16:21:12;2.00;;;1.90;;
9422;SDS011;65863;49.506;10.400;2023-06-14T16:23:56;3.90;;;2.03;;
9422;SDS011;65863;49.506;10.400;2023-06-14T16:26:40;3.40;;;2.23;;
9422;SDS011;65863;49.506;10.400;2023-06-14T16:29:24;2.83;;;1.90;;
9422;SDS011;65863;49.506;10.400;2023-06-14T16:32:08;6.13;;;2.10;;
9422;SDS011;65863;49.506;10.400;2023-06-14T16:34:52;2.83;;;2.10;;
9422;SDS011;65863;49.506;10.400;2023-06-14T16:37:36;1.80;;;1.70;;
9422;SDS011;65863;49.506;10.400;2023-06-14T16:40:20;2.13;;;1.93;;
9422;SDS011;65863;49.506;10.400;2023-06-14T16:43:04;3.77;;;2.07;;